sensor_id;sensor_type;location;lat;lon;timestamp;temperature;humidity
35299;DHT22;21415;48.054;16.646;2022-10-16T00:01:13;19.00;59.00
35299;DHT22;21415;48.054;16.646;2022-10-16T00:03:40;19.00;58.70
35299;DHT22;21415;48.054;16.646;2022-10-16T00:06:07;19.00;58.70
35299;DHT22;21415;48.054;16.646;2022-10-16T00:08:34;18.90;58.70
35299;DHT22;21415;48.054;16.646;2022-10-16T00:11:10;18.90;58.80
35299;DHT22;21415;48.054;16.646;2022-10-16T00:13:38;18.90;59.00
35299;DHT22;21415;48.054;16.646;2022-10-16T00:16:06;18.90;58.70
35299;DHT22;21415;48.054;16.646;2022-10-16T00:18:33;18.90;58.70
35299;DHT22;21415;48.054;16.646;2022-10-16T00:21:02;18.80;58.70
35299;DHT22;21415;48.054;16.646;2022-10-16T00:23:28;18.80;59.00
35299;DHT22;21415;48.054;16.646;2022-10-16T00:25:58;18.80;58.70
35299;DHT22;21415;48.054;16.646;2022-10-16T00:28:25;18.80;59.00
35299;DHT22;21415;48.054;16.646;2022-10-16T00:30:51;18.70;58.90
35299;DHT22;21415;48.054;16.646;2022-10-16T00:33:17;18.70;59.30
35299;DHT22;21415;48.054;16.646;2022-10-16T00:35:43;18.70;59.10
35299;DHT22;21415;48.054;16.646;2022-10-16T00:38:09;18.70;59.00
35299;DHT22;21415;48.054;16.646;2022-10-16T00:40:35;18.70;58.70
35299;DHT22;21415;48.054;16.646;2022-10-16T00:43:01;18.60;58.80
35299;DHT22;21415;48.054;16.646;2022-10-16T00:45:26;18.60;59.00
35299;DHT22;21415;48.054;16.646;2022-10-16T00:47:54;18.50;59.10
35299;DHT22;21415;48.054;16.646;2022-10-16T00:50:30;18.50;59.30
35299;DHT22;21415;48.054;16.646;2022-10-16T00:52:58;18.50;59.70
35299;DHT22;21415;48.054;16.646;2022-10-16T00:55:24;18.40;59.40
35299;DHT22;21415;48.054;16.646;2022-10-16T00:57:51;18.40;59.50
35299;DHT22;21415;48.054;16.646;2022-10-16T01:00:20;18.40;59.60
35299;DHT22;21415;48.054;16.646;2022-10-16T01:02:58;18.40;59.70
35299;DHT22;21415;48.054;16.646;2022-10-16T01:05:40;18.40;59.90
35299;DHT22;21415;48.054;16.646;2022-10-16T01:08:19;18.40;60.00
35299;DHT22;21415;48.054;16.646;2022-10-16T01:10:52;18.30;60.00
35299;DHT22;21415;48.054;16.646;2022-10-16T01:13:35;18.30;59.90
35299;DHT22;21415;48.054;16.646;2022-10-16T01:16:20;18.30;60.10
35299;DHT22;21415;48.054;16.646;2022-10-16T01:18:59;18.30;60.10
35299;DHT22;21415;48.054;16.646;2022-10-16T01:21:31;18.30;60.20
35299;DHT22;21415;48.054;16.646;2022-10-16T01:27:13;18.30;60.40
35299;DHT22;21415;48.054;16.646;2022-10-16T01:29:54;18.30;60.50
35299;DHT22;21415;48.054;16.646;2022-10-16T01:35:22;18.30;60.20
35299;DHT22;21415;48.054;16.646;2022-10-16T01:38:00;18.30;60.30
35299;DHT22;21415;48.054;16.646;2022-10-16T01:40:28;18.30;60.30
35299;DHT22;21415;48.054;16.646;2022-10-16T01:43:06;18.30;60.20
35299;DHT22;21415;48.054;16.646;2022-10-16T01:45:34;18.30;60.30
35299;DHT22;21415;48.054;16.646;2022-10-16T01:48:02;18.40;60.20
35299;DHT22;21415;48.054;16.646;2022-10-16T01:50:33;18.40;60.20
35299;DHT22;21415;48.054;16.646;2022-10-16T01:53:02;18.40;60.20
35299;DHT22;21415;48.054;16.646;2022-10-16T01:55:34;18.40;60.20
35299;DHT22;21415;48.054;16.646;2022-10-16T01:58:02;18.40;60.30
35299;DHT22;21415;48.054;16.646;2022-10-16T02:00:30;18.40;60.30
35299;DHT22;21415;48.054;16.646;2022-10-16T02:02:57;18.30;60.30
35299;DHT22;21415;48.054;16.646;2022-10-16T02:05:37;18.30;60.40
35299;DHT22;21415;48.054;16.646;2022-10-16T02:08:05;18.30;60.70
35299;DHT22;21415;48.054;16.646;2022-10-16T02:10:30;18.30;60.60
35299;DHT22;21415;48.054;16.646;2022-10-16T02:13:05;18.30;60.70
35299;DHT22;21415;48.054;16.646;2022-10-16T02:15:31;18.30;61.00
35299;DHT22;21415;48.054;16.646;2022-10-16T02:17:57;18.30;60.80
35299;DHT22;21415;48.054;16.646;2022-10-16T02:20:27;18.30;60.90
35299;DHT22;21415;48.054;16.646;2022-10-16T02:22:54;18.30;61.10
35299;DHT22;21415;48.054;16.646;2022-10-16T02:25:30;18.30;61.10
35299;DHT22;21415;48.054;16.646;2022-10-16T02:30:41;18.30;61.50
35299;DHT22;21415;48.054;16.646;2022-10-16T02:33:10;18.30;61.20
35299;DHT22;21415;48.054;16.646;2022-10-16T02:35:40;18.30;61.20
35299;DHT22;21415;48.054;16.646;2022-10-16T02:38:07;18.30;61.00
35299;DHT22;21415;48.054;16.646;2022-10-16T02:40:33;18.30;60.90
35299;DHT22;21415;48.054;16.646;2022-10-16T02:43:00;18.40;60.80
35299;DHT22;21415;48.054;16.646;2022-10-16T02:45:26;18.40;61.00
35299;DHT22;21415;48.054;16.646;2022-10-16T02:47:51;18.40;60.70
35299;DHT22;21415;48.054;16.646;2022-10-16T02:50:17;18.40;60.10
35299;DHT22;21415;48.054;16.646;2022-10-16T02:52:43;18.40;60.20
35299;DHT22;21415;48.054;16.646;2022-10-16T02:55:09;18.40;60.30
35299;DHT22;21415;48.054;16.646;2022-10-16T02:57:34;18.40;60.30
35299;DHT22;21415;48.054;16.646;2022-10-16T03:00:04;18.40;60.40
35299;DHT22;21415;48.054;16.646;2022-10-16T03:02:30;18.40;60.50
35299;DHT22;21415;48.054;16.646;2022-10-16T03:04:56;18.40;60.50
35299;DHT22;21415;48.054;16.646;2022-10-16T03:07:22;18.40;60.50
35299;DHT22;21415;48.054;16.646;2022-10-16T03:09:47;18.40;60.50
35299;DHT22;21415;48.054;16.646;2022-10-16T03:12:13;18.40;60.40
35299;DHT22;21415;48.054;16.646;2022-10-16T03:14:39;18.40;60.40
35299;DHT22;21415;48.054;16.646;2022-10-16T03:17:05;18.40;60.30
35299;DHT22;21415;48.054;16.646;2022-10-16T03:19:31;18.40;60.30
35299;DHT22;21415;48.054;16.646;2022-10-16T03:21:57;18.40;60.20
35299;DHT22;21415;48.054;16.646;2022-10-16T03:24:23;18.40;60.20
35299;DHT22;21415;48.054;16.646;2022-10-16T03:26:49;18.40;60.20
35299;DHT22;21415;48.054;16.646;2022-10-16T03:29:14;18.40;60.20
35299;DHT22;21415;48.054;16.646;2022-10-16T03:31:40;18.40;60.20
35299;DHT22;21415;48.054;16.646;2022-10-16T03:34:24;18.30;60.20
35299;DHT22;21415;48.054;16.646;2022-10-16T03:36:50;18.30;60.20
35299;DHT22;21415;48.054;16.646;2022-10-16T03:39:16;18.30;60.20
35299;DHT22;21415;48.054;16.646;2022-10-16T03:41:41;18.30;60.10
35299;DHT22;21415;48.054;16.646;2022-10-16T03:44:07;18.30;60.00
35299;DHT22;21415;48.054;16.646;2022-10-16T03:46:33;18.30;60.00
35299;DHT22;21415;48.054;16.646;2022-10-16T03:48:59;18.30;60.00
35299;DHT22;21415;48.054;16.646;2022-10-16T03:51:24;18.20;60.00
35299;DHT22;21415;48.054;16.646;2022-10-16T03:53:50;18.20;60.10
35299;DHT22;21415;48.054;16.646;2022-10-16T03:56:16;18.20;60.30
35299;DHT22;21415;48.054;16.646;2022-10-16T03:58:42;18.20;60.40
35299;DHT22;21415;48.054;16.646;2022-10-16T04:01:07;18.00;60.40
35299;DHT22;21415;48.054;16.646;2022-10-16T04:03:33;18.20;60.50
35299;DHT22;21415;48.054;16.646;2022-10-16T04:05:59;18.20;60.60
35299;DHT22;21415;48.054;16.646;2022-10-16T04:08:24;18.20;60.60
35299;DHT22;21415;48.054;16.646;2022-10-16T04:10:50;18.20;60.70
35299;DHT22;21415;48.054;16.646;2022-10-16T04:13:16;18.20;60.80
35299;DHT22;21415;48.054;16.646;2022-10-16T04:15:42;18.30;60.90
35299;DHT22;21415;48.054;16.646;2022-10-16T04:18:08;18.30;60.90
35299;DHT22;21415;48.054;16.646;2022-10-16T04:20:34;18.30;60.80
35299;DHT22;21415;48.054;16.646;2022-10-16T04:23:00;18.30;60.80
35299;DHT22;21415;48.054;16.646;2022-10-16T04:25:25;18.30;60.80
35299;DHT22;21415;48.054;16.646;2022-10-16T04:27:53;18.30;60.80
35299;DHT22;21415;48.054;16.646;2022-10-16T04:30:20;18.40;60.90
35299;DHT22;21415;48.054;16.646;2022-10-16T04:32:50;18.40;60.90
35299;DHT22;21415;48.054;16.646;2022-10-16T04:35:17;18.40;61.00
35299;DHT22;21415;48.054;16.646;2022-10-16T04:37:43;18.40;60.90
35299;DHT22;21415;48.054;16.646;2022-10-16T04:40:09;18.40;60.90
35299;DHT22;21415;48.054;16.646;2022-10-16T04:42:35;18.40;60.90
35299;DHT22;21415;48.054;16.646;2022-10-16T04:45:01;18.40;60.80
35299;DHT22;21415;48.054;16.646;2022-10-16T04:47:27;18.40;60.80
35299;DHT22;21415;48.054;16.646;2022-10-16T04:49:52;18.40;60.70
35299;DHT22;21415;48.054;16.646;2022-10-16T04:52:18;18.40;60.70
35299;DHT22;21415;48.054;16.646;2022-10-16T04:54:44;18.40;61.30
35299;DHT22;21415;48.054;16.646;2022-10-16T04:57:11;18.40;60.70
35299;DHT22;21415;48.054;16.646;2022-10-16T04:59:36;18.40;61.30
35299;DHT22;21415;48.054;16.646;2022-10-16T05:02:03;18.40;60.80
35299;DHT22;21415;48.054;16.646;2022-10-16T05:04:28;18.40;60.80
35299;DHT22;21415;48.054;16.646;2022-10-16T05:06:54;18.40;60.90
35299;DHT22;21415;48.054;16.646;2022-10-16T05:09:20;18.40;60.80
35299;DHT22;21415;48.054;16.646;2022-10-16T05:11:46;18.40;60.80
35299;DHT22;21415;48.054;16.646;2022-10-16T05:14:12;18.40;60.70
35299;DHT22;21415;48.054;16.646;2022-10-16T05:16:37;18.40;60.70
35299;DHT22;21415;48.054;16.646;2022-10-16T05:19:03;18.40;60.70
35299;DHT22;21415;48.054;16.646;2022-10-16T05:21:29;18.40;60.70
35299;DHT22;21415;48.054;16.646;2022-10-16T05:23:55;18.40;60.70
35299;DHT22;21415;48.054;16.646;2022-10-16T05:26:21;18.40;60.80
35299;DHT22;21415;48.054;16.646;2022-10-16T05:28:47;18.40;60.80
35299;DHT22;21415;48.054;16.646;2022-10-16T05:31:13;18.40;60.80
35299;DHT22;21415;48.054;16.646;2022-10-16T05:33:38;18.40;60.80
35299;DHT22;21415;48.054;16.646;2022-10-16T05:36:08;18.50;60.80
35299;DHT22;21415;48.054;16.646;2022-10-16T05:38:37;18.40;60.90
35299;DHT22;21415;48.054;16.646;2022-10-16T05:41:04;18.40;60.90
35299;DHT22;21415;48.054;16.646;2022-10-16T05:43:31;18.40;60.80
35299;DHT22;21415;48.054;16.646;2022-10-16T05:45:59;18.40;60.90
35299;DHT22;21415;48.054;16.646;2022-10-16T05:48:26;18.50;60.90
35299;DHT22;21415;48.054;16.646;2022-10-16T05:51:03;18.50;60.80
35299;DHT22;21415;48.054;16.646;2022-10-16T05:53:31;18.50;61.00
35299;DHT22;21415;48.054;16.646;2022-10-16T05:55:57;18.50;60.80
35299;DHT22;21415;48.054;16.646;2022-10-16T05:58:24;18.50;60.80
35299;DHT22;21415;48.054;16.646;2022-10-16T06:00:56;18.50;61.00
35299;DHT22;21415;48.054;16.646;2022-10-16T06:03:22;18.50;60.90
35299;DHT22;21415;48.054;16.646;2022-10-16T06:05:48;18.50;60.50
35299;DHT22;21415;48.054;16.646;2022-10-16T06:08:14;18.50;60.50
35299;DHT22;21415;48.054;16.646;2022-10-16T06:10:40;18.50;60.60
35299;DHT22;21415;48.054;16.646;2022-10-16T06:13:05;18.50;60.70
35299;DHT22;21415;48.054;16.646;2022-10-16T06:15:31;18.50;60.80
35299;DHT22;21415;48.054;16.646;2022-10-16T06:17:57;18.50;60.80
35299;DHT22;21415;48.054;16.646;2022-10-16T06:20:23;18.60;60.90
35299;DHT22;21415;48.054;16.646;2022-10-16T06:22:49;18.60;60.90
35299;DHT22;21415;48.054;16.646;2022-10-16T06:25:14;18.60;60.90
35299;DHT22;21415;48.054;16.646;2022-10-16T06:27:40;18.60;60.90
35299;DHT22;21415;48.054;16.646;2022-10-16T06:30:07;18.60;60.90
35299;DHT22;21415;48.054;16.646;2022-10-16T06:32:33;18.70;61.00
35299;DHT22;21415;48.054;16.646;2022-10-16T06:34:59;18.70;61.00
35299;DHT22;21415;48.054;16.646;2022-10-16T06:37:24;18.70;61.00
35299;DHT22;21415;48.054;16.646;2022-10-16T06:39:50;18.80;60.90
35299;DHT22;21415;48.054;16.646;2022-10-16T06:42:19;18.80;60.80
35299;DHT22;21415;48.054;16.646;2022-10-16T06:44:45;18.80;60.70
35299;DHT22;21415;48.054;16.646;2022-10-16T06:47:11;18.80;60.60
35299;DHT22;21415;48.054;16.646;2022-10-16T06:49:37;18.90;60.70
35299;DHT22;21415;48.054;16.646;2022-10-16T06:52:03;18.90;60.60
35299;DHT22;21415;48.054;16.646;2022-10-16T06:54:29;18.90;60.60
35299;DHT22;21415;48.054;16.646;2022-10-16T06:56:54;18.90;60.70
35299;DHT22;21415;48.054;16.646;2022-10-16T06:59:21;19.00;60.80
35299;DHT22;21415;48.054;16.646;2022-10-16T07:01:46;19.00;60.70
35299;DHT22;21415;48.054;16.646;2022-10-16T07:04:12;19.00;60.70
35299;DHT22;21415;48.054;16.646;2022-10-16T07:06:38;19.10;60.70
35299;DHT22;21415;48.054;16.646;2022-10-16T07:09:06;19.20;60.60
35299;DHT22;21415;48.054;16.646;2022-10-16T07:11:33;19.20;60.40
35299;DHT22;21415;48.054;16.646;2022-10-16T07:13:59;19.20;60.50
35299;DHT22;21415;48.054;16.646;2022-10-16T07:16:27;19.20;60.50
35299;DHT22;21415;48.054;16.646;2022-10-16T07:18:58;19.30;60.50
35299;DHT22;21415;48.054;16.646;2022-10-16T07:21:26;19.30;60.40
35299;DHT22;21415;48.054;16.646;2022-10-16T07:23:56;19.30;60.40
35299;DHT22;21415;48.054;16.646;2022-10-16T07:26:23;19.30;60.40
35299;DHT22;21415;48.054;16.646;2022-10-16T07:28:49;19.30;60.40
35299;DHT22;21415;48.054;16.646;2022-10-16T07:31:17;19.40;60.50
35299;DHT22;21415;48.054;16.646;2022-10-16T07:33:44;19.40;60.40
35299;DHT22;21415;48.054;16.646;2022-10-16T07:36:14;19.50;60.40
35299;DHT22;21415;48.054;16.646;2022-10-16T07:38:41;19.50;60.20
35299;DHT22;21415;48.054;16.646;2022-10-16T07:41:13;19.60;60.20
35299;DHT22;21415;48.054;16.646;2022-10-16T07:43:39;19.60;60.10
35299;DHT22;21415;48.054;16.646;2022-10-16T07:46:05;19.60;59.90
35299;DHT22;21415;48.054;16.646;2022-10-16T07:48:32;19.60;59.70
35299;DHT22;21415;48.054;16.646;2022-10-16T07:51:00;19.70;59.70
35299;DHT22;21415;48.054;16.646;2022-10-16T07:53:26;19.60;59.60
35299;DHT22;21415;48.054;16.646;2022-10-16T07:55:56;19.60;59.90
35299;DHT22;21415;48.054;16.646;2022-10-16T07:58:23;19.60;60.10
35299;DHT22;21415;48.054;16.646;2022-10-16T08:00:48;19.70;60.30
35299;DHT22;21415;48.054;16.646;2022-10-16T08:03:14;19.70;60.50
35299;DHT22;21415;48.054;16.646;2022-10-16T08:05:40;19.70;60.50
35299;DHT22;21415;48.054;16.646;2022-10-16T08:08:05;19.80;60.50
35299;DHT22;21415;48.054;16.646;2022-10-16T08:10:31;19.90;60.60
35299;DHT22;21415;48.054;16.646;2022-10-16T08:12:57;19.90;60.70
35299;DHT22;21415;48.054;16.646;2022-10-16T08:15:24;20.00;60.60
35299;DHT22;21415;48.054;16.646;2022-10-16T08:18:02;20.10;60.60
35299;DHT22;21415;48.054;16.646;2022-10-16T08:20:29;20.20;60.40
35299;DHT22;21415;48.054;16.646;2022-10-16T08:22:56;20.30;60.60
35299;DHT22;21415;48.054;16.646;2022-10-16T08:25:22;20.40;60.50
35299;DHT22;21415;48.054;16.646;2022-10-16T08:27:48;20.50;60.40
35299;DHT22;21415;48.054;16.646;2022-10-16T08:30:14;20.50;60.10
35299;DHT22;21415;48.054;16.646;2022-10-16T08:32:40;20.60;60.00
35299;DHT22;21415;48.054;16.646;2022-10-16T08:35:10;20.60;59.70
35299;DHT22;21415;48.054;16.646;2022-10-16T08:37:37;20.70;59.50
35299;DHT22;21415;48.054;16.646;2022-10-16T08:40:04;20.70;59.30
35299;DHT22;21415;48.054;16.646;2022-10-16T08:50:23;20.90;59.00
35299;DHT22;21415;48.054;16.646;2022-10-16T08:52:50;20.90;59.70
35299;DHT22;21415;48.054;16.646;2022-10-16T08:55:31;20.90;59.10
35299;DHT22;21415;48.054;16.646;2022-10-16T08:58:00;20.90;59.10
35299;DHT22;21415;48.054;16.646;2022-10-16T09:00:27;21.00;59.20
35299;DHT22;21415;48.054;16.646;2022-10-16T09:05:43;21.00;59.00
35299;DHT22;21415;48.054;16.646;2022-10-16T09:08:33;21.10;59.00
35299;DHT22;21415;48.054;16.646;2022-10-16T09:13:43;21.20;59.00
35299;DHT22;21415;48.054;16.646;2022-10-16T09:16:19;21.20;59.10
35299;DHT22;21415;48.054;16.646;2022-10-16T09:21:30;21.30;58.90
35299;DHT22;21415;48.054;16.646;2022-10-16T09:23:59;21.30;58.90
35299;DHT22;21415;48.054;16.646;2022-10-16T09:26:25;21.40;58.90
35299;DHT22;21415;48.054;16.646;2022-10-16T09:28:54;21.40;58.70
35299;DHT22;21415;48.054;16.646;2022-10-16T09:31:22;21.40;58.60
35299;DHT22;21415;48.054;16.646;2022-10-16T09:33:58;21.50;58.90
35299;DHT22;21415;48.054;16.646;2022-10-16T09:36:27;21.50;58.70
35299;DHT22;21415;48.054;16.646;2022-10-16T09:39:05;21.50;58.80
35299;DHT22;21415;48.054;16.646;2022-10-16T09:41:35;21.60;58.60
35299;DHT22;21415;48.054;16.646;2022-10-16T09:44:03;21.60;58.60
35299;DHT22;21415;48.054;16.646;2022-10-16T09:46:30;21.60;58.70
35299;DHT22;21415;48.054;16.646;2022-10-16T09:48:59;21.60;58.70
35299;DHT22;21415;48.054;16.646;2022-10-16T09:51:26;21.70;59.00
35299;DHT22;21415;48.054;16.646;2022-10-16T09:56:31;21.70;59.00
35299;DHT22;21415;48.054;16.646;2022-10-16T09:59:10;21.70;58.90
35299;DHT22;21415;48.054;16.646;2022-10-16T10:01:39;21.80;59.00
35299;DHT22;21415;48.054;16.646;2022-10-16T10:04:06;21.80;59.00
35299;DHT22;21415;48.054;16.646;2022-10-16T10:06:37;21.90;58.90
35299;DHT22;21415;48.054;16.646;2022-10-16T10:09:26;21.90;58.90
35299;DHT22;21415;48.054;16.646;2022-10-16T10:11:55;21.90;58.90
35299;DHT22;21415;48.054;16.646;2022-10-16T10:42:22;22.40;58.70
35299;DHT22;21415;48.054;16.646;2022-10-16T10:47:54;22.50;58.70
35299;DHT22;21415;48.054;16.646;2022-10-16T10:50:49;22.50;58.70
35299;DHT22;21415;48.054;16.646;2022-10-16T11:01:32;22.80;58.70
35299;DHT22;21415;48.054;16.646;2022-10-16T11:04:25;22.90;58.70
35299;DHT22;21415;48.054;16.646;2022-10-16T11:07:03;22.90;57.90
35299;DHT22;21415;48.054;16.646;2022-10-16T11:09:47;23.00;57.90
35299;DHT22;21415;48.054;16.646;2022-10-16T11:12:27;23.10;57.70
35299;DHT22;21415;48.054;16.646;2022-10-16T11:22:46;23.30;57.30
35299;DHT22;21415;48.054;16.646;2022-10-16T11:25:18;23.30;57.30
35299;DHT22;21415;48.054;16.646;2022-10-16T11:27:57;23.30;57.20
35299;DHT22;21415;48.054;16.646;2022-10-16T11:30:29;23.40;57.00
35299;DHT22;21415;48.054;16.646;2022-10-16T11:33:27;23.50;56.80
35299;DHT22;21415;48.054;16.646;2022-10-16T11:36:25;23.50;56.50
35299;DHT22;21415;48.054;16.646;2022-10-16T11:41:45;23.50;56.70
35299;DHT22;21415;48.054;16.646;2022-10-16T11:49:32;23.60;56.20
35299;DHT22;21415;48.054;16.646;2022-10-16T11:54:38;23.70;56.10
35299;DHT22;21415;48.054;16.646;2022-10-16T11:57:13;23.70;55.80
35299;DHT22;21415;48.054;16.646;2022-10-16T12:02:39;23.80;55.50
35299;DHT22;21415;48.054;16.646;2022-10-16T12:05:50;23.80;55.40
35299;DHT22;21415;48.054;16.646;2022-10-16T12:08:14;23.80;55.60
35299;DHT22;21415;48.054;16.646;2022-10-16T12:10:46;23.80;55.30
35299;DHT22;21415;48.054;16.646;2022-10-16T12:13:35;23.80;55.60
35299;DHT22;21415;48.054;16.646;2022-10-16T12:16:24;23.80;55.40
35299;DHT22;21415;48.054;16.646;2022-10-16T12:18:50;23.90;55.90
35299;DHT22;21415;48.054;16.646;2022-10-16T12:21:31;23.90;55.70
35299;DHT22;21415;48.054;16.646;2022-10-16T12:23:58;24.00;55.30
35299;DHT22;21415;48.054;16.646;2022-10-16T12:26:28;24.00;55.60
35299;DHT22;21415;48.054;16.646;2022-10-16T12:28:56;24.00;55.40
35299;DHT22;21415;48.054;16.646;2022-10-16T12:31:23;24.10;55.50
35299;DHT22;21415;48.054;16.646;2022-10-16T12:34:03;24.20;55.30
35299;DHT22;21415;48.054;16.646;2022-10-16T12:36:32;24.20;55.00
35299;DHT22;21415;48.054;16.646;2022-10-16T12:38:58;24.30;55.00
35299;DHT22;21415;48.054;16.646;2022-10-16T12:41:35;24.40;54.90
35299;DHT22;21415;48.054;16.646;2022-10-16T12:44:05;24.40;54.10
35299;DHT22;21415;48.054;16.646;2022-10-16T12:46:46;24.50;54.50
35299;DHT22;21415;48.054;16.646;2022-10-16T12:51:38;24.60;54.10
35299;DHT22;21415;48.054;16.646;2022-10-16T12:54:15;24.60;53.90
35299;DHT22;21415;48.054;16.646;2022-10-16T12:59:56;24.70;52.90
35299;DHT22;21415;48.054;16.646;2022-10-16T13:08:09;24.80;52.80
35299;DHT22;21415;48.054;16.646;2022-10-16T13:22:05;24.80;52.00
35299;DHT22;21415;48.054;16.646;2022-10-16T13:24:56;24.90;52.30
35299;DHT22;21415;48.054;16.646;2022-10-16T13:27:37;24.90;51.90
35299;DHT22;21415;48.054;16.646;2022-10-16T13:30:26;24.90;51.80
35299;DHT22;21415;48.054;16.646;2022-10-16T13:33:04;25.00;51.50
35299;DHT22;21415;48.054;16.646;2022-10-16T13:35:34;25.00;51.40
35299;DHT22;21415;48.054;16.646;2022-10-16T13:38:05;25.00;51.80
35299;DHT22;21415;48.054;16.646;2022-10-16T13:40:31;25.00;51.40
35299;DHT22;21415;48.054;16.646;2022-10-16T13:42:59;25.00;51.70
35299;DHT22;21415;48.054;16.646;2022-10-16T13:45:25;25.00;51.40
35299;DHT22;21415;48.054;16.646;2022-10-16T13:48:05;25.10;51.70
35299;DHT22;21415;48.054;16.646;2022-10-16T13:50:31;25.10;51.20
35299;DHT22;21415;48.054;16.646;2022-10-16T13:53:09;25.10;51.50
35299;DHT22;21415;48.054;16.646;2022-10-16T13:55:38;25.10;50.80
35299;DHT22;21415;48.054;16.646;2022-10-16T13:58:14;25.20;51.30
35299;DHT22;21415;48.054;16.646;2022-10-16T14:00:51;25.10;50.40
35299;DHT22;21415;48.054;16.646;2022-10-16T14:03:19;25.10;50.80
35299;DHT22;21415;48.054;16.646;2022-10-16T14:05:58;25.20;50.60
35299;DHT22;21415;48.054;16.646;2022-10-16T14:08:25;25.20;50.10
35299;DHT22;21415;48.054;16.646;2022-10-16T14:10:55;25.20;50.60
35299;DHT22;21415;48.054;16.646;2022-10-16T14:13:47;25.20;50.50
35299;DHT22;21415;48.054;16.646;2022-10-16T14:16:20;25.10;50.30
35299;DHT22;21415;48.054;16.646;2022-10-16T14:19:04;25.10;50.00
35299;DHT22;21415;48.054;16.646;2022-10-16T14:21:33;25.20;50.20
35299;DHT22;21415;48.054;16.646;2022-10-16T14:23:59;25.10;50.40
35299;DHT22;21415;48.054;16.646;2022-10-16T14:26:44;25.10;50.40
35299;DHT22;21415;48.054;16.646;2022-10-16T14:29:15;25.10;50.00
35299;DHT22;21415;48.054;16.646;2022-10-16T14:31:57;25.10;50.00
35299;DHT22;21415;48.054;16.646;2022-10-16T14:34:35;25.10;49.80
35299;DHT22;21415;48.054;16.646;2022-10-16T14:39:33;25.10;50.00
35299;DHT22;21415;48.054;16.646;2022-10-16T14:41:59;25.10;50.30
35299;DHT22;21415;48.054;16.646;2022-10-16T14:44:31;25.10;50.30
35299;DHT22;21415;48.054;16.646;2022-10-16T14:46:58;25.10;50.10
35299;DHT22;21415;48.054;16.646;2022-10-16T14:49:31;25.00;50.30
35299;DHT22;21415;48.054;16.646;2022-10-16T14:51:57;25.10;50.30
35299;DHT22;21415;48.054;16.646;2022-10-16T14:54:23;25.10;50.40
35299;DHT22;21415;48.054;16.646;2022-10-16T14:56:58;25.10;50.20
35299;DHT22;21415;48.054;16.646;2022-10-16T14:59:35;25.10;49.60
35299;DHT22;21415;48.054;16.646;2022-10-16T15:04:50;25.10;49.70
35299;DHT22;21415;48.054;16.646;2022-10-16T15:07:16;25.10;50.10
35299;DHT22;21415;48.054;16.646;2022-10-16T15:09:42;25.10;50.10
35299;DHT22;21415;48.054;16.646;2022-10-16T15:12:08;25.10;50.10
35299;DHT22;21415;48.054;16.646;2022-10-16T15:14:33;25.10;50.10
35299;DHT22;21415;48.054;16.646;2022-10-16T15:16:59;25.10;50.10
35299;DHT22;21415;48.054;16.646;2022-10-16T15:19:25;25.10;50.20
35299;DHT22;21415;48.054;16.646;2022-10-16T15:21:51;25.10;50.10
35299;DHT22;21415;48.054;16.646;2022-10-16T15:24:18;25.10;50.00
35299;DHT22;21415;48.054;16.646;2022-10-16T15:26:43;25.10;49.90
35299;DHT22;21415;48.054;16.646;2022-10-16T15:29:12;25.10;50.20
35299;DHT22;21415;48.054;16.646;2022-10-16T15:31:38;25.10;50.00
35299;DHT22;21415;48.054;16.646;2022-10-16T15:34:04;25.00;49.80
35299;DHT22;21415;48.054;16.646;2022-10-16T15:36:36;25.00;50.10
35299;DHT22;21415;48.054;16.646;2022-10-16T15:39:20;25.00;49.70
35299;DHT22;21415;48.054;16.646;2022-10-16T15:41:47;24.90;49.50
35299;DHT22;21415;48.054;16.646;2022-10-16T15:44:19;24.90;49.80
35299;DHT22;21415;48.054;16.646;2022-10-16T15:46:46;24.80;49.70
35299;DHT22;21415;48.054;16.646;2022-10-16T15:49:12;24.80;49.80
35299;DHT22;21415;48.054;16.646;2022-10-16T15:51:39;24.70;49.80
35299;DHT22;21415;48.054;16.646;2022-10-16T15:54:05;24.70;49.90
35299;DHT22;21415;48.054;16.646;2022-10-16T15:56:31;24.60;49.90
35299;DHT22;21415;48.054;16.646;2022-10-16T15:58:59;24.60;50.00
35299;DHT22;21415;48.054;16.646;2022-10-16T16:01:26;24.60;50.60
35299;DHT22;21415;48.054;16.646;2022-10-16T16:03:53;24.50;50.00
35299;DHT22;21415;48.054;16.646;2022-10-16T16:06:19;24.50;50.10
35299;DHT22;21415;48.054;16.646;2022-10-16T16:08:45;24.40;50.10
35299;DHT22;21415;48.054;16.646;2022-10-16T16:11:14;24.40;50.20
35299;DHT22;21415;48.054;16.646;2022-10-16T16:13:40;24.30;50.20
35299;DHT22;21415;48.054;16.646;2022-10-16T16:16:08;24.30;50.20
35299;DHT22;21415;48.054;16.646;2022-10-16T16:18:35;24.10;50.20
35299;DHT22;21415;48.054;16.646;2022-10-16T16:21:01;24.20;50.30
35299;DHT22;21415;48.054;16.646;2022-10-16T16:23:27;24.20;50.50
35299;DHT22;21415;48.054;16.646;2022-10-16T16:28:35;24.00;50.50
35299;DHT22;21415;48.054;16.646;2022-10-16T16:31:02;24.00;50.70
35299;DHT22;21415;48.054;16.646;2022-10-16T16:33:28;24.00;50.90
35299;DHT22;21415;48.054;16.646;2022-10-16T16:36:05;24.00;50.80
35299;DHT22;21415;48.054;16.646;2022-10-16T16:38:32;23.90;50.80
35299;DHT22;21415;48.054;16.646;2022-10-16T16:40:58;23.80;50.90
35299;DHT22;21415;48.054;16.646;2022-10-16T16:43:25;23.80;51.00
35299;DHT22;21415;48.054;16.646;2022-10-16T16:45:52;23.80;51.20
35299;DHT22;21415;48.054;16.646;2022-10-16T16:48:18;23.70;51.20
35299;DHT22;21415;48.054;16.646;2022-10-16T16:50:44;23.70;51.30
35299;DHT22;21415;48.054;16.646;2022-10-16T16:53:10;23.60;51.30
35299;DHT22;21415;48.054;16.646;2022-10-16T16:55:36;23.60;51.40
35299;DHT22;21415;48.054;16.646;2022-10-16T16:58:01;23.60;51.50
35299;DHT22;21415;48.054;16.646;2022-10-16T17:00:29;23.60;51.60
35299;DHT22;21415;48.054;16.646;2022-10-16T17:02:56;23.50;51.60
35299;DHT22;21415;48.054;16.646;2022-10-16T17:05:22;23.50;51.60
35299;DHT22;21415;48.054;16.646;2022-10-16T17:07:48;23.50;51.70
35299;DHT22;21415;48.054;16.646;2022-10-16T17:10:14;23.40;51.70
35299;DHT22;21415;48.054;16.646;2022-10-16T17:12:40;23.40;51.80
35299;DHT22;21415;48.054;16.646;2022-10-16T17:15:06;23.40;51.90
35299;DHT22;21415;48.054;16.646;2022-10-16T17:17:32;23.30;51.90
35299;DHT22;21415;48.054;16.646;2022-10-16T17:19:58;23.30;51.90
35299;DHT22;21415;48.054;16.646;2022-10-16T17:22:24;23.30;52.00
35299;DHT22;21415;48.054;16.646;2022-10-16T17:24:50;23.20;52.10
35299;DHT22;21415;48.054;16.646;2022-10-16T17:27:17;23.20;52.10